Briefing drone pour Trelissac

Rechercher une autre localisation

Conditions de vol :


Nous sommes le : Mercredi 04 août 2021
Il est 05:09 UTC (07:09 LT)

Lever de soleil : 04:19 UTC (06:19 LT)
Coucher de soleil : 19:46 UTC (21:46 LT)

Météo

L'essentiel des conditions de vol

VIGILANCE MÉTÉO FRANCE - Dordogne (24)
Pas de vigilances particulieres
CARTE TEMSI
CARTES DES FRONTS
METAR de LFBX
LFBX 040500Z AUTO 09002KT 5000 -RA BR OVC015 15/15 Q1013

Date d'émission: 04/08/2021
Heure d'émission: 05:00 UTC
Vent: 090° pour 2 KT (4 km/h)
Visibilité horizontale: 5000 m
Plafond :
- Couvert à 1500ft (457m)
Température: 15 °C
Point de rosée: 15 °C
Humidité: 100%
Pression (QNH): 1013 hPa
Conditions: Faible pluie
Prévision 24h pour Perigueux (3 km)
Vent : 249° pour 3 KT (10 km/h)
Temperature Maxi: 16 °C
Temperature Min: 16 °C
Humidité : 91%
Condition : Légère pluie



Warning: count(): Parameter must be an array or an object that implements Countable in /homepages/6/d509196549/htdocs/droneoxygene/briefing.php on line 743
WEBCAM POUR TRELISSAC

Réglementation

Voler en sécurité

CARTES AERONAUTIQUE 1/500.000
CARTES VAC (LFBX)
SUP AIP




Chargement des AIP...
NOTAM (TRELISSAC + Terrain à proximité / FIR )




Chargement des NOTAMS...
CONTACT PREFECTURE 24


Avertissement : Les données mises à disposition sont indicatives. Oxygène Drone ne pourra être tenu responsable de dégâts causés aux biens et aux personnes.